Buoy 41938

sailwx.info

Track history (hours):
 
Tides and Currents Weather Stations Pressure Air Temp Water Temp Dewpoint Dewpoint Depression Visibility Wind Speed Wind Dir Waves Ship Positions

Drifting buoy 41938

Last reported at 2014-Oct-25 14:00 UTC. Time now 2014-Oct-25 14:39 UTC.
Position N 35°42' W 068°29'.

Barometer 1011.0 mb
Water temperature 24.5 ° C

Date/timePositionNaut miles runAvg speedWind from/ knotsBaromVisibWave heightAir tempDewpointWater temp
2014-Oct-25 14:00N 35°42' W 068°29'1 1.0 1011.0 24.5
2014-Oct-25 13:00N 35°42' W 068°31'0 0.0 1011.1 24.5
2014-Oct-25 11:00N 35°42' W 068°31'1 0.6 1010.6 24.5
2014-Oct-25 10:00N 35°42' W 068°31'1 0.7 1010.2 24.6
2014-Oct-25 09:00N 35°42' W 068°30'3 2.6 1010.0 24.5
2014-Oct-25 08:00N 35°43' W 068°33'0 0.0 1009.4 24.5
2014-Oct-25 06:00N 35°43' W 068°33'0 0.0 1009.8 24.5
2014-Oct-25 05:00N 35°43' W 068°33'6 2.0 1009.8 24.6
2014-Oct-25 02:00N 35°47' W 068°38'0 0.0 1009.5 24.6
2014-Oct-25 01:00N 35°47' W 068°38'0 0.0 1009.3 24.6
2014-Oct-24 23:00N 35°47' W 068°38'1 0.4 1008.5 24.7
2014-Oct-24 21:00N 35°48' W 068°38'2 2.0 1007.9 24.9
2014-Oct-24 20:00N 35°49' W 068°40'6 2.8 1008.1 24.9
2014-Oct-24 18:00N 35°53' W 068°45'0 0.0 1007.9 24.8
2014-Oct-24 17:00N 35°53' W 068°45'0 0.2 1008.1 24.8
2014-Oct-24 15:00N 35°53' W 068°45'0 0.0 1008.6 24.7
2014-Oct-24 14:00N 35°53' W 068°45'4 3.9 1008.6 24.7
2014-Oct-24 13:00N 35°56' W 068°49'0 0.0 1008.1 24.8
2014-Oct-24 11:00N 35°56' W 068°49'2 2.0 1006.7 24.9
2014-Oct-24 10:00N 35°57' W 068°50'1 1.1 1006.4 25.0
2014-Oct-24 09:00N 35°58' W 068°51'3 2.6 1005.9 25.0
2014-Oct-24 08:00N 35°60' W 068°54'6 1.0 1005.3 24.9
2014-Oct-24 02:00N 36°04' W 068°59'4 1.8 1005.2 25.0
2014-Oct-24 00:00N 36°07' W 069°02'2 1.1 1004.4 25.0
2014-Oct-23 22:00N 36°08' W 069°04'3 1.5 1003.7 24.9
2014-Oct-23 20:00N 36°10' W 069°07'3 2.8 1003.1 25.0
2014-Oct-23 19:00N 36°11' W 069°10'0 0.0 1003.0 25.1
2014-Oct-23 18:00N 36°11' W 069°10'2 0.8 1003.0 25.1
2014-Oct-23 15:00N 36°11' W 069°13'6 1.5 1004.2 25.1
2014-Oct-23 11:00N 36°12' W 069°21'1 1.4 1003.8 25.1
2014-Oct-23 10:00N 36°12' W 069°23'10 2.4 1003.3 25.2
2014-Oct-23 06:00N 36°09' W 069°34'0 0.0 1003.1 25.3
2014-Oct-23 03:00N 36°09' W 069°34'3 3.0 1004.4 25.4
2014-Oct-23 02:00N 36°08' W 069°37'0 0.0 1005.0 25.4
2014-Oct-23 01:00N 36°08' W 069°37'1 1.1 1005.1 25.3
2014-Oct-23 00:00N 36°08' W 069°39'0 0.0 1004.6 25.3
2014-Oct-22 23:00N 36°08' W 069°39'1 1.1 1005.1 25.3
2014-Oct-22 22:00N 36°08' W 069°39'3 1.7 1005.1 25.3
2014-Oct-22 20:00N 36°05' W 069°42'2 1.0 1005.4 25.4
2014-Oct-22 18:00N 36°03' W 069°43'0 0.0 1006.0 25.4
2014-Oct-22 17:00N 36°03' W 069°43'2 1.7 1006.6 25.4
2014-Oct-22 16:00N 36°01' W 069°43'3 2.6 1007.4 25.4
2014-Oct-22 15:00N 36°01' W 069°40'1 1.0 1007.8 25.3
2014-Oct-22 14:00N 36°01' W 069°39'0 0.0 1008.4 24.9
2014-Oct-22 11:00N 36°01' W 069°39'0 0.0 1008.7 25.3
2014-Oct-22 10:00N 36°01' W 069°39'3 3.3 1008.9 25.3
2014-Oct-22 09:00N 35°58' W 069°42'0 0.0 1008.9 25.4
2014-Oct-22 08:00N 35°58' W 069°42'0 0.0 1008.0 25.4
2014-Oct-22 07:00N 35°58' W 069°42'0 0.0 1009.5 25.4
2014-Oct-22 05:00N 35°58' W 069°42'0 0.2 1010.8 25.4
2014-Oct-22 02:00N 35°58' W 069°42'2 2.5 1012.4 25.3
2014-Oct-22 01:00N 35°56' W 069°45'2 2.5 1012.5 25.3
2014-Oct-22 00:00N 35°54' W 069°43'0 0.0 1012.5 25.3
2014-Oct-21 23:00N 35°54' W 069°43'1 1.2 1012.1 25.3
2014-Oct-21 22:00N 35°53' W 069°44'5 2.4 1011.6 25.3
2014-Oct-21 20:00N 35°49' W 069°42'1 0.6 1012.0 25.4
2014-Oct-21 18:00N 35°48' W 069°42'3 0.5 1012.5 25.4
2014-Oct-21 12:00N 35°45' W 069°39'1 0.5 1016.8 25.4
2014-Oct-21 11:00N 35°46' W 069°40'3 1.5 1016.6 25.4
2014-Oct-21 09:00N 35°43' W 069°38'0 0.0 1017.5 25.4
2014-Oct-21 08:00N 35°43' W 069°38'4 4.0 1018.1 25.4
2014-Oct-21 07:00N 35°40' W 069°34'0 0.0 1018.6 25.4
2014-Oct-21 05:00N 35°40' W 069°34'0 0.0 1019.6 25.2
2014-Oct-21 04:00N 35°40' W 069°34'0 0.0 1019.8 25.3
2014-Oct-21 03:00N 35°40' W 069°34'0 0.0 1020.0 25.4
2014-Oct-21 02:00N 35°40' W 069°34'2 1.8 1020.0 25.4
2014-Oct-21 01:00N 35°40' W 069°32'0 0.0 1019.9 25.4
2014-Oct-21 00:00N 35°40' W 069°32'2 1.0 1019.8 25.4
2014-Oct-20 22:00N 35°40' W 069°29'1 1.1 1019.2 25.4
2014-Oct-20 21:00N 35°41' W 069°28'1 1.3 1019.3 25.4
2014-Oct-20 20:00N 35°42' W 069°27'0 0.0 1019.3 25.4
2014-Oct-20 19:00N 35°42' W 069°27'0 0.2 1019.4 25.4
2014-Oct-20 18:00N 35°42' W 069°27'1 0.8 1019.7 25.4
2014-Oct-20 17:00N 35°42' W 069°27'0 0.1 1020.2 25.4
2014-Oct-20 16:00N 35°42' W 069°27'2 0.8 1020.8 25.4
2014-Oct-20 14:00N 35°44' W 069°26'0 0.1 1021.1 25.4
2014-Oct-20 11:00N 35°44' W 069°26'1 1.4 1018.6 25.4
2014-Oct-20 10:00N 35°45' W 069°27'2 1.6 1018.1 25.4
2014-Oct-20 09:00N 35°45' W 069°25'1 0.3 1017.4 25.5
2014-Oct-20 07:00N 35°45' W 069°25'0 0.1 1016.3 25.4
2014-Oct-20 05:00N 35°45' W 069°25'2 2.3 1015.4 25.5
2014-Oct-20 04:00N 35°47' W 069°23'1 0.5 1015.1 25.5
2014-Oct-20 02:00N 35°47' W 069°22'1 1.1 1014.2 25.5
2014-Oct-20 01:00N 35°48' W 069°22'1 1.0 1013.6 25.5
2014-Oct-20 00:00N 35°49' W 069°22'3 1.1 1012.7 25.5
2014-Oct-19 21:00N 35°52' W 069°23'0 0.0 1010.2 25.6
2014-Oct-19 20:00N 35°52' W 069°23'1 1.2 1009.0 25.6
2014-Oct-19 19:00N 35°54' W 069°24'1 1.4 1008.4 25.6
2014-Oct-19 18:00N 35°54' W 069°25'0 0.0 1007.8 25.7
2014-Oct-19 17:00N 35°54' W 069°25'1 1.1 1007.9 25.7
2014-Oct-19 16:00N 35°55' W 069°26'0 0.0 1008.8 25.6
2014-Oct-19 15:00N 35°55' W 069°26'0 0.4 1007.1 25.6
2014-Oct-19 14:00N 35°55' W 069°27'0 0.0 1005.1 25.6
2014-Oct-19 13:00N 35°55' W 069°27'2 0.7 1006.8 25.7
2014-Oct-19 10:00N 35°53' W 069°27'0 0.0 1006.7 25.7
2014-Oct-19 09:00N 35°53' W 069°27'0 0.4 1006.8 25.7
2014-Oct-19 08:00N 35°53' W 069°26'0 0.5 1006.5 25.7
2014-Oct-19 07:00N 35°52' W 069°26'0 0.0 1007.1 25.7
2014-Oct-19 06:00N 35°52' W 069°26'1 0.9 1007.6 25.7
2014-Oct-19 05:00N 35°52' W 069°26'1 0.2 1007.7 25.7
2014-Oct-19 02:00N 35°51' W 069°27'0 0.1 1008.3 25.7
2014-Oct-19 01:00N 35°51' W 069°27'1 1.1 1008.2 25.7
2014-Oct-19 00:00N 35°50' W 069°26'1 1.0 1008.0 25.6
2014-Oct-18 23:00N 35°50' W 069°27'0 0.0 1007.5 25.6
2014-Oct-18 22:00N 35°50' W 069°27'0 0.0 1006.9 25.6
2014-Oct-18 21:00N 35°50' W 069°27'1 0.8 1006.6 25.6
2014-Oct-18 20:00N 35°50' W 069°28'0 0.2 1006.5 25.7
2014-Oct-18 19:00N 35°50' W 069°28'0 0.4 1006.6 25.7
2014-Oct-18 18:00N 35°50' W 069°28'0 0.2 1006.5 25.7
2014-Oct-18 17:00N 35°50' W 069°29'0 0.2 1006.9 25.7
2014-Oct-18 15:00N 35°50' W 069°28'0 0.2 1007.6 25.7
2014-Oct-18 14:00N 35°50' W 069°28'0 0.1 1007.7 25.7
2014-Oct-18 11:00N 35°50' W 069°28'1 0.6 1007.1 25.6
2014-Oct-18 10:00N 35°50' W 069°27'1 0.6 1007.0 25.6
2014-Oct-18 09:00N 35°49' W 069°27'2 2.0 1006.9 25.6
2014-Oct-18 08:00N 35°51' W 069°27'3 1.5 1006.7 25.6
2014-Oct-18 06:00N 35°54' W 069°25'2 1.8 1007.7 25.7
2014-Oct-18 05:00N 35°52' W 069°26'2 0.7 1007.8 25.7
2014-Oct-18 02:00N 35°54' W 069°26'0 0.5 1008.8 25.8
2014-Oct-18 01:00N 35°54' W 069°26'1 0.6 1008.9 25.8
2014-Oct-17 23:00N 35°55' W 069°26'1 0.6 1009.1 25.8
2014-Oct-17 21:00N 35°54' W 069°25'1 0.9 1008.7 25.8
2014-Oct-17 20:00N 35°53' W 069°25'2 1.6 1009.1 25.8
2014-Oct-17 19:00N 35°52' W 069°23'0 0.0 1009.2 25.8
2014-Oct-17 17:00N 35°52' W 069°23'3 1.5 1009.8 25.8
2014-Oct-17 15:00N 35°52' W 069°20'4 3.9 1010.8 25.8
2014-Oct-17 14:00N 35°53' W 069°15'0 0.0 1010.7 25.8
2014-Oct-17 11:00N 35°53' W 069°15'1 1.1 1009.9 25.7
2014-Oct-17 10:00N 35°54' W 069°14'2 2.2 1009.1 25.7
2014-Oct-17 09:00N 35°56' W 069°14'0 0.3 1008.5 25.7
2014-Oct-17 08:00N 35°56' W 069°14'2 2.3 1007.8 25.7
2014-Oct-17 07:00N 35°58' W 069°15'2 1.6 1007.9 25.7
2014-Oct-17 06:00N 35°59' W 069°17'0 0.1 1008.6 25.8
2014-Oct-17 02:00N 35°59' W 069°17'1 1.0 1007.1 26.1
2014-Oct-17 01:00N 35°58' W 069°17'3 3.2 1008.7 26.1
2014-Oct-17 00:00N 35°56' W 069°14'0 0.0 1009.4 26.1
2014-Oct-16 22:00N 35°56' W 069°14'1 0.4 1010.3 26.0
2014-Oct-16 19:00N 35°55' W 069°15'12 0.9 1011.2 25.8
2014-Oct-16 06:00N 35°48' W 069°03'0 0.0 1016.5 25.8
2014-Oct-16 02:00N 35°48' W 069°03'1 1.2 1019.3 25.6
2014-Oct-16 01:00N 35°47' W 069°01'2 1.1 1019.5 25.5
2014-Oct-15 23:00N 35°46' W 068°59'2 0.4 1019.7 25.4
2014-Oct-15 18:00N 35°44' W 068°59'3 1.1 1020.0 25.1
2014-Oct-15 15:00N 35°44' W 068°55'0 0.3 1022.2 25.1
2014-Oct-15 14:00N 35°44' W 068°55'   1022.5 25.1
Track history (hours):
 
Tides and Currents Weather Stations Pressure Air Temp Water Temp Dewpoint Dewpoint Depression Visibility Wind Speed Wind Dir Waves Ship Positions

Drifting buoy 41938

Last reported at 2014-Oct-25 14:00 UTC. Time now 2014-Oct-25 14:39 UTC.
Position N 35°42' W 068°29'.

Barometer 1011.0 mb
Water temperature 24.5 ° C

Date/timePositionNaut miles runAvg speedWind from/ knotsBaromVisibWave heightAir tempDewpointWater temp
2014-Oct-25 14:00N 35°42' W 068°29'1 1.0 1011.0 24.5
2014-Oct-25 13:00N 35°42' W 068°31'0 0.0 1011.1 24.5
2014-Oct-25 11:00N 35°42' W 068°31'1 0.6 1010.6 24.5
2014-Oct-25 10:00N 35°42' W 068°31'1 0.7 1010.2 24.6
2014-Oct-25 09:00N 35°42' W 068°30'3 2.6 1010.0 24.5
2014-Oct-25 08:00N 35°43' W 068°33'0 0.0 1009.4 24.5
2014-Oct-25 06:00N 35°43' W 068°33'0 0.0 1009.8 24.5
2014-Oct-25 05:00N 35°43' W 068°33'6 2.0 1009.8 24.6
2014-Oct-25 02:00N 35°47' W 068°38'0 0.0 1009.5 24.6
2014-Oct-25 01:00N 35°47' W 068°38'0 0.0 1009.3 24.6
2014-Oct-24 23:00N 35°47' W 068°38'1 0.4 1008.5 24.7
2014-Oct-24 21:00N 35°48' W 068°38'2 2.0 1007.9 24.9
2014-Oct-24 20:00N 35°49' W 068°40'6 2.8 1008.1 24.9
2014-Oct-24 18:00N 35°53' W 068°45'0 0.0 1007.9 24.8
2014-Oct-24 17:00N 35°53' W 068°45'0 0.2 1008.1 24.8
2014-Oct-24 15:00N 35°53' W 068°45'0 0.0 1008.6 24.7
2014-Oct-24 14:00N 35°53' W 068°45'4 3.9 1008.6 24.7
2014-Oct-24 13:00N 35°56' W 068°49'0 0.0 1008.1 24.8
2014-Oct-24 11:00N 35°56' W 068°49'2 2.0 1006.7 24.9
2014-Oct-24 10:00N 35°57' W 068°50'1 1.1 1006.4 25.0
2014-Oct-24 09:00N 35°58' W 068°51'3 2.6 1005.9 25.0
2014-Oct-24 08:00N 35°60' W 068°54'6 1.0 1005.3 24.9
2014-Oct-24 02:00N 36°04' W 068°59'4 1.8 1005.2 25.0
2014-Oct-24 00:00N 36°07' W 069°02'2 1.1 1004.4 25.0
2014-Oct-23 22:00N 36°08' W 069°04'3 1.5 1003.7 24.9
2014-Oct-23 20:00N 36°10' W 069°07'3 2.8 1003.1 25.0
2014-Oct-23 19:00N 36°11' W 069°10'0 0.0 1003.0 25.1
2014-Oct-23 18:00N 36°11' W 069°10'2 0.8 1003.0 25.1
2014-Oct-23 15:00N 36°11' W 069°13'6 1.5 1004.2 25.1
2014-Oct-23 11:00N 36°12' W 069°21'1 1.4 1003.8 25.1
2014-Oct-23 10:00N 36°12' W 069°23'10 2.4 1003.3 25.2
2014-Oct-23 06:00N 36°09' W 069°34'0 0.0 1003.1 25.3
2014-Oct-23 03:00N 36°09' W 069°34'3 3.0 1004.4 25.4
2014-Oct-23 02:00N 36°08' W 069°37'0 0.0 1005.0 25.4
2014-Oct-23 01:00N 36°08' W 069°37'1 1.1 1005.1 25.3
2014-Oct-23 00:00N 36°08' W 069°39'0 0.0 1004.6 25.3
2014-Oct-22 23:00N 36°08' W 069°39'1 1.1 1005.1 25.3
2014-Oct-22 22:00N 36°08' W 069°39'3 1.7 1005.1 25.3
2014-Oct-22 20:00N 36°05' W 069°42'2 1.0 1005.4 25.4
2014-Oct-22 18:00N 36°03' W 069°43'0 0.0 1006.0 25.4
2014-Oct-22 17:00N 36°03' W 069°43'2 1.7 1006.6 25.4
2014-Oct-22 16:00N 36°01' W 069°43'3 2.6 1007.4 25.4
2014-Oct-22 15:00N 36°01' W 069°40'1 1.0 1007.8 25.3
2014-Oct-22 14:00N 36°01' W 069°39'0 0.0 1008.4 24.9
2014-Oct-22 11:00N 36°01' W 069°39'0 0.0 1008.7 25.3
2014-Oct-22 10:00N 36°01' W 069°39'3 3.3 1008.9 25.3
2014-Oct-22 09:00N 35°58' W 069°42'0 0.0 1008.9 25.4
2014-Oct-22 08:00N 35°58' W 069°42'0 0.0 1008.0 25.4
2014-Oct-22 07:00N 35°58' W 069°42'0 0.0 1009.5 25.4
2014-Oct-22 05:00N 35°58' W 069°42'0 0.2 1010.8 25.4
2014-Oct-22 02:00N 35°58' W 069°42'2 2.5 1012.4 25.3
2014-Oct-22 01:00N 35°56' W 069°45'2 2.5 1012.5 25.3
2014-Oct-22 00:00N 35°54' W 069°43'0 0.0 1012.5 25.3
2014-Oct-21 23:00N 35°54' W 069°43'1 1.2 1012.1 25.3
2014-Oct-21 22:00N 35°53' W 069°44'5 2.4 1011.6 25.3
2014-Oct-21 20:00N 35°49' W 069°42'1 0.6 1012.0 25.4
2014-Oct-21 18:00N 35°48' W 069°42'3 0.5 1012.5 25.4
2014-Oct-21 12:00N 35°45' W 069°39'1 0.5 1016.8 25.4
2014-Oct-21 11:00N 35°46' W 069°40'3 1.5 1016.6 25.4
2014-Oct-21 09:00N 35°43' W 069°38'0 0.0 1017.5 25.4
2014-Oct-21 08:00N 35°43' W 069°38'4 4.0 1018.1 25.4
2014-Oct-21 07:00N 35°40' W 069°34'0 0.0 1018.6 25.4
2014-Oct-21 05:00N 35°40' W 069°34'0 0.0 1019.6 25.2
2014-Oct-21 04:00N 35°40' W 069°34'0 0.0 1019.8 25.3
2014-Oct-21 03:00N 35°40' W 069°34'0 0.0 1020.0 25.4
2014-Oct-21 02:00N 35°40' W 069°34'2 1.8 1020.0 25.4
2014-Oct-21 01:00N 35°40' W 069°32'0 0.0 1019.9 25.4
2014-Oct-21 00:00N 35°40' W 069°32'2 1.0 1019.8 25.4
2014-Oct-20 22:00N 35°40' W 069°29'1 1.1 1019.2 25.4
2014-Oct-20 21:00N 35°41' W 069°28'1 1.3 1019.3 25.4
2014-Oct-20 20:00N 35°42' W 069°27'0 0.0 1019.3 25.4
2014-Oct-20 19:00N 35°42' W 069°27'0 0.2 1019.4 25.4
2014-Oct-20 18:00N 35°42' W 069°27'1 0.8 1019.7 25.4
2014-Oct-20 17:00N 35°42' W 069°27'0 0.1 1020.2 25.4
2014-Oct-20 16:00N 35°42' W 069°27'2 0.8 1020.8 25.4
2014-Oct-20 14:00N 35°44' W 069°26'0 0.1 1021.1 25.4
2014-Oct-20 11:00N 35°44' W 069°26'1 1.4 1018.6 25.4
2014-Oct-20 10:00N 35°45' W 069°27'2 1.6 1018.1 25.4
2014-Oct-20 09:00N 35°45' W 069°25'1 0.3 1017.4 25.5
2014-Oct-20 07:00N 35°45' W 069°25'0 0.1 1016.3 25.4
2014-Oct-20 05:00N 35°45' W 069°25'2 2.3 1015.4 25.5
2014-Oct-20 04:00N 35°47' W 069°23'1 0.5 1015.1 25.5
2014-Oct-20 02:00N 35°47' W 069°22'1 1.1 1014.2 25.5
2014-Oct-20 01:00N 35°48' W 069°22'1 1.0 1013.6 25.5
2014-Oct-20 00:00N 35°49' W 069°22'3 1.1 1012.7 25.5
2014-Oct-19 21:00N 35°52' W 069°23'0 0.0 1010.2 25.6
2014-Oct-19 20:00N 35°52' W 069°23'1 1.2 1009.0 25.6
2014-Oct-19 19:00N 35°54' W 069°24'1 1.4 1008.4 25.6
2014-Oct-19 18:00N 35°54' W 069°25'0 0.0 1007.8 25.7
2014-Oct-19 17:00N 35°54' W 069°25'1 1.1 1007.9 25.7
2014-Oct-19 16:00N 35°55' W 069°26'0 0.0 1008.8 25.6
2014-Oct-19 15:00N 35°55' W 069°26'0 0.4 1007.1 25.6
2014-Oct-19 14:00N 35°55' W 069°27'0 0.0 1005.1 25.6
2014-Oct-19 13:00N 35°55' W 069°27'2 0.7 1006.8 25.7
2014-Oct-19 10:00N 35°53' W 069°27'0 0.0 1006.7 25.7
2014-Oct-19 09:00N 35°53' W 069°27'0 0.4 1006.8 25.7
2014-Oct-19 08:00N 35°53' W 069°26'0 0.5 1006.5 25.7
2014-Oct-19 07:00N 35°52' W 069°26'0 0.0 1007.1 25.7
2014-Oct-19 06:00N 35°52' W 069°26'1 0.9 1007.6 25.7
2014-Oct-19 05:00N 35°52' W 069°26'1 0.2 1007.7 25.7
2014-Oct-19 02:00N 35°51' W 069°27'0 0.1 1008.3 25.7
2014-Oct-19 01:00N 35°51' W 069°27'1 1.1 1008.2 25.7
2014-Oct-19 00:00N 35°50' W 069°26'1 1.0 1008.0 25.6
2014-Oct-18 23:00N 35°50' W 069°27'0 0.0 1007.5 25.6
2014-Oct-18 22:00N 35°50' W 069°27'0 0.0 1006.9 25.6
2014-Oct-18 21:00N 35°50' W 069°27'1 0.8 1006.6 25.6
2014-Oct-18 20:00N 35°50' W 069°28'0 0.2 1006.5 25.7
2014-Oct-18 19:00N 35°50' W 069°28'0 0.4 1006.6 25.7
2014-Oct-18 18:00N 35°50' W 069°28'0 0.2 1006.5 25.7
2014-Oct-18 17:00N 35°50' W 069°29'0 0.2 1006.9 25.7
2014-Oct-18 15:00N 35°50' W 069°28'0 0.2 1007.6 25.7
2014-Oct-18 14:00N 35°50' W 069°28'0 0.1 1007.7 25.7
2014-Oct-18 11:00N 35°50' W 069°28'1 0.6 1007.1 25.6
2014-Oct-18 10:00N 35°50' W 069°27'1 0.6 1007.0 25.6
2014-Oct-18 09:00N 35°49' W 069°27'2 2.0 1006.9 25.6
2014-Oct-18 08:00N 35°51' W 069°27'3 1.5 1006.7 25.6
2014-Oct-18 06:00N 35°54' W 069°25'2 1.8 1007.7 25.7
2014-Oct-18 05:00N 35°52' W 069°26'2 0.7 1007.8 25.7
2014-Oct-18 02:00N 35°54' W 069°26'0 0.5 1008.8 25.8
2014-Oct-18 01:00N 35°54' W 069°26'1 0.6 1008.9 25.8
2014-Oct-17 23:00N 35°55' W 069°26'1 0.6 1009.1 25.8
2014-Oct-17 21:00N 35°54' W 069°25'1 0.9 1008.7 25.8
2014-Oct-17 20:00N 35°53' W 069°25'2 1.6 1009.1 25.8
2014-Oct-17 19:00N 35°52' W 069°23'0 0.0 1009.2 25.8
2014-Oct-17 17:00N 35°52' W 069°23'3 1.5 1009.8 25.8
2014-Oct-17 15:00N 35°52' W 069°20'4 3.9 1010.8 25.8
2014-Oct-17 14:00N 35°53' W 069°15'0 0.0 1010.7 25.8
2014-Oct-17 11:00N 35°53' W 069°15'1 1.1 1009.9 25.7
2014-Oct-17 10:00N 35°54' W 069°14'2 2.2 1009.1 25.7
2014-Oct-17 09:00N 35°56' W 069°14'0 0.3 1008.5 25.7
2014-Oct-17 08:00N 35°56' W 069°14'2 2.3 1007.8 25.7
2014-Oct-17 07:00N 35°58' W 069°15'2 1.6 1007.9 25.7
2014-Oct-17 06:00N 35°59' W 069°17'0 0.1 1008.6 25.8
2014-Oct-17 02:00N 35°59' W 069°17'1 1.0 1007.1 26.1
2014-Oct-17 01:00N 35°58' W 069°17'3 3.2 1008.7 26.1
2014-Oct-17 00:00N 35°56' W 069°14'0 0.0 1009.4 26.1
2014-Oct-16 22:00N 35°56' W 069°14'1 0.4 1010.3 26.0
2014-Oct-16 19:00N 35°55' W 069°15'12 0.9 1011.2 25.8
2014-Oct-16 06:00N 35°48' W 069°03'0 0.0 1016.5 25.8
2014-Oct-16 02:00N 35°48' W 069°03'1 1.2 1019.3 25.6
2014-Oct-16 01:00N 35°47' W 069°01'2 1.1 1019.5 25.5
2014-Oct-15 23:00N 35°46' W 068°59'2 0.4 1019.7 25.4
2014-Oct-15 18:00N 35°44' W 068°59'3 1.1 1020.0 25.1
2014-Oct-15 15:00N 35°44' W 068°55'0 0.3 1022.2 25.1
2014-Oct-15 14:00N 35°44' W 068°55'   1022.5 25.1

Dump ship's entire track history